Terminal Aerodrome Forecast
Issued by NWS

Home | Current Version | Previous Version | Text Only | Print | Product List | Glossary On
Versions: 1 2 3 4 5 6 7 8 9 10 11 12 13 14 15 16 17 18 19 20 21
795
FTUS41 KILN 241720
TAFLUK
TAF
KLUK 241720Z 2418/2518 19010KT P6SM SCT250
     FM250200 20007KT P6SM BKN250 WS020/22035KT
     FM250800 23009KT P6SM BKN110
     FM251300 25010KT P6SM BKN100
     FM251600 29010KT P6SM BKN030=

USA.gov is the U.S. government's official web portal to all federal, state and local government web resources and services.